sensor_id;sensor_type;location;lat;lon;timestamp;P1;durP1;ratioP1;P2;durP2;ratioP2
50337;SDS011;46221;51.178;5.900;2023-04-25T00:00:48;5.35;;;2.75;;
50337;SDS011;46221;51.178;5.900;2023-04-25T00:03:15;6.03;;;2.70;;
50337;SDS011;46221;51.178;5.900;2023-04-25T00:05:42;5.03;;;2.45;;
50337;SDS011;46221;51.178;5.900;2023-04-25T00:08:09;5.90;;;2.65;;
50337;SDS011;46221;51.178;5.900;2023-04-25T00:10:35;5.55;;;2.47;;
50337;SDS011;46221;51.178;5.900;2023-04-25T00:13:02;5.40;;;2.60;;
50337;SDS011;46221;51.178;5.900;2023-04-25T00:15:28;6.85;;;2.83;;
50337;SDS011;46221;51.178;5.900;2023-04-25T00:17:58;5.70;;;2.50;;
50337;SDS011;46221;51.178;5.900;2023-04-25T00:20:24;5.30;;;2.72;;
50337;SDS011;46221;51.178;5.900;2023-04-25T00:22:51;5.45;;;2.72;;
50337;SDS011;46221;51.178;5.900;2023-04-25T00:25:19;6.47;;;2.97;;
50337;SDS011;46221;51.178;5.900;2023-04-25T00:27:45;6.57;;;2.83;;
50337;SDS011;46221;51.178;5.900;2023-04-25T00:30:12;4.55;;;2.22;;
50337;SDS011;46221;51.178;5.900;2023-04-25T00:32:38;5.97;;;2.80;;
50337;SDS011;46221;51.178;5.900;2023-04-25T00:35:05;5.03;;;2.58;;
50337;SDS011;46221;51.178;5.900;2023-04-25T00:37:32;5.93;;;3.25;;
50337;SDS011;46221;51.178;5.900;2023-04-25T00:39:58;6.35;;;2.67;;
50337;SDS011;46221;51.178;5.900;2023-04-25T00:42:25;4.47;;;2.60;;
50337;SDS011;46221;51.178;5.900;2023-04-25T00:44:52;6.57;;;3.10;;
50337;SDS011;46221;51.178;5.900;2023-04-25T00:47:19;6.88;;;3.08;;
50337;SDS011;46221;51.178;5.900;2023-04-25T00:49:45;5.25;;;2.80;;
50337;SDS011;46221;51.178;5.900;2023-04-25T00:52:12;6.40;;;2.85;;
50337;SDS011;46221;51.178;5.900;2023-04-25T00:54:38;6.43;;;2.42;;
50337;SDS011;46221;51.178;5.900;2023-04-25T00:57:05;6.55;;;2.85;;
50337;SDS011;46221;51.178;5.900;2023-04-25T00:59:31;4.93;;;2.38;;
50337;SDS011;46221;51.178;5.900;2023-04-25T01:01:58;5.65;;;2.70;;
50337;SDS011;46221;51.178;5.900;2023-04-25T01:04:24;5.03;;;2.75;;
50337;SDS011;46221;51.178;5.900;2023-04-25T01:06:52;6.07;;;2.60;;
50337;SDS011;46221;51.178;5.900;2023-04-25T01:09:18;5.15;;;2.47;;
50337;SDS011;46221;51.178;5.900;2023-04-25T01:11:45;5.18;;;2.75;;
50337;SDS011;46221;51.178;5.900;2023-04-25T01:14:12;6.00;;;2.90;;
50337;SDS011;46221;51.178;5.900;2023-04-25T01:16:38;4.85;;;2.40;;
50337;SDS011;46221;51.178;5.900;2023-04-25T01:19:07;8.73;;;3.00;;
50337;SDS011;46221;51.178;5.900;2023-04-25T01:21:34;4.30;;;2.40;;
50337;SDS011;46221;51.178;5.900;2023-04-25T01:24:01;4.80;;;2.67;;
50337;SDS011;46221;51.178;5.900;2023-04-25T01:26:28;5.88;;;2.88;;
50337;SDS011;46221;51.178;5.900;2023-04-25T01:28:54;5.28;;;2.60;;
50337;SDS011;46221;51.178;5.900;2023-04-25T01:31:21;6.03;;;2.40;;
50337;SDS011;46221;51.178;5.900;2023-04-25T01:33:48;4.57;;;2.47;;
50337;SDS011;46221;51.178;5.900;2023-04-25T01:36:15;4.53;;;2.67;;
50337;SDS011;46221;51.178;5.900;2023-04-25T01:38:41;5.72;;;2.67;;
50337;SDS011;46221;51.178;5.900;2023-04-25T01:41:12;5.00;;;2.45;;
50337;SDS011;46221;51.178;5.900;2023-04-25T01:43:39;6.53;;;2.55;;
50337;SDS011;46221;51.178;5.900;2023-04-25T01:46:06;5.82;;;2.60;;
50337;SDS011;46221;51.178;5.900;2023-04-25T01:48:32;5.60;;;2.78;;
50337;SDS011;46221;51.178;5.900;2023-04-25T01:50:58;9.13;;;3.10;;
50337;SDS011;46221;51.178;5.900;2023-04-25T01:53:25;5.55;;;2.83;;
50337;SDS011;46221;51.178;5.900;2023-04-25T01:55:52;6.70;;;3.15;;
50337;SDS011;46221;51.178;5.900;2023-04-25T01:58:18;6.18;;;2.53;;
50337;SDS011;46221;51.178;5.900;2023-04-25T02:00:44;5.78;;;2.90;;
50337;SDS011;46221;51.178;5.900;2023-04-25T02:03:11;4.93;;;2.72;;
50337;SDS011;46221;51.178;5.900;2023-04-25T02:05:38;6.72;;;2.90;;
50337;SDS011;46221;51.178;5.900;2023-04-25T02:08:05;6.78;;;3.13;;
50337;SDS011;46221;51.178;5.900;2023-04-25T02:10:32;5.35;;;2.78;;
50337;SDS011;46221;51.178;5.900;2023-04-25T02:12:58;5.95;;;3.10;;
50337;SDS011;46221;51.178;5.900;2023-04-25T02:15:24;7.80;;;3.00;;
50337;SDS011;46221;51.178;5.900;2023-04-25T02:17:51;4.70;;;2.53;;
50337;SDS011;46221;51.178;5.900;2023-04-25T02:20:20;6.38;;;2.60;;
50337;SDS011;46221;51.178;5.900;2023-04-25T02:22:47;4.95;;;2.28;;
50337;SDS011;46221;51.178;5.900;2023-04-25T02:25:14;4.80;;;2.38;;
50337;SDS011;46221;51.178;5.900;2023-04-25T02:27:42;4.28;;;2.38;;
50337;SDS011;46221;51.178;5.900;2023-04-25T02:30:09;6.47;;;2.58;;
50337;SDS011;46221;51.178;5.900;2023-04-25T02:32:35;5.18;;;2.53;;
50337;SDS011;46221;51.178;5.900;2023-04-25T02:35:02;6.50;;;2.53;;
50337;SDS011;46221;51.178;5.900;2023-04-25T02:37:30;4.88;;;2.45;;
50337;SDS011;46221;51.178;5.900;2023-04-25T02:39:56;6.30;;;2.47;;
50337;SDS011;46221;51.178;5.900;2023-04-25T02:42:23;5.50;;;2.30;;
50337;SDS011;46221;51.178;5.900;2023-04-25T02:44:49;4.53;;;2.58;;
50337;SDS011;46221;51.178;5.900;2023-04-25T02:47:15;4.80;;;2.90;;
50337;SDS011;46221;51.178;5.900;2023-04-25T02:49:42;4.85;;;2.50;;
50337;SDS011;46221;51.178;5.900;2023-04-25T02:52:08;5.65;;;2.80;;
50337;SDS011;46221;51.178;5.900;2023-04-25T02:54:35;4.30;;;2.58;;
50337;SDS011;46221;51.178;5.900;2023-04-25T02:57:01;5.28;;;2.20;;
50337;SDS011;46221;51.178;5.900;2023-04-25T02:59:28;5.70;;;2.55;;
50337;SDS011;46221;51.178;5.900;2023-04-25T03:01:54;7.72;;;3.08;;
50337;SDS011;46221;51.178;5.900;2023-04-25T03:04:21;6.90;;;2.90;;
50337;SDS011;46221;51.178;5.900;2023-04-25T03:06:50;6.18;;;2.58;;
50337;SDS011;46221;51.178;5.900;2023-04-25T03:09:16;5.10;;;2.35;;
50337;SDS011;46221;51.178;5.900;2023-04-25T03:11:43;5.20;;;2.50;;
50337;SDS011;46221;51.178;5.900;2023-04-25T03:14:10;4.78;;;2.47;;
50337;SDS011;46221;51.178;5.900;2023-04-25T03:16:36;5.65;;;2.33;;
50337;SDS011;46221;51.178;5.900;2023-04-25T03:19:03;4.80;;;1.95;;
50337;SDS011;46221;51.178;5.900;2023-04-25T03:21:30;5.88;;;2.10;;
50337;SDS011;46221;51.178;5.900;2023-04-25T03:23:58;6.53;;;2.88;;
50337;SDS011;46221;51.178;5.900;2023-04-25T03:26:24;5.85;;;2.58;;
50337;SDS011;46221;51.178;5.900;2023-04-25T03:28:50;6.93;;;2.30;;
50337;SDS011;46221;51.178;5.900;2023-04-25T03:31:17;5.07;;;2.35;;
50337;SDS011;46221;51.178;5.900;2023-04-25T03:33:43;6.05;;;2.08;;
50337;SDS011;46221;51.178;5.900;2023-04-25T03:36:09;7.65;;;2.50;;
50337;SDS011;46221;51.178;5.900;2023-04-25T03:38:36;4.10;;;1.92;;
50337;SDS011;46221;51.178;5.900;2023-04-25T03:41:03;6.32;;;2.40;;
50337;SDS011;46221;51.178;5.900;2023-04-25T03:43:29;5.05;;;2.25;;
50337;SDS011;46221;51.178;5.900;2023-04-25T03:45:55;5.15;;;2.20;;
50337;SDS011;46221;51.178;5.900;2023-04-25T03:48:22;4.80;;;2.30;;
50337;SDS011;46221;51.178;5.900;2023-04-25T03:50:51;7.63;;;2.22;;
50337;SDS011;46221;51.178;5.900;2023-04-25T03:53:17;5.88;;;2.03;;
50337;SDS011;46221;51.178;5.900;2023-04-25T03:55:46;4.35;;;2.35;;
50337;SDS011;46221;51.178;5.900;2023-04-25T03:58:13;5.78;;;2.45;;
50337;SDS011;46221;51.178;5.900;2023-04-25T04:00:40;5.90;;;2.38;;
50337;SDS011;46221;51.178;5.900;2023-04-25T04:03:06;7.05;;;2.33;;
50337;SDS011;46221;51.178;5.900;2023-04-25T04:05:33;5.88;;;2.22;;
50337;SDS011;46221;51.178;5.900;2023-04-25T04:07:59;4.38;;;1.92;;
50337;SDS011;46221;51.178;5.900;2023-04-25T04:10:26;5.75;;;2.78;;
50337;SDS011;46221;51.178;5.900;2023-04-25T04:12:52;4.68;;;2.03;;
50337;SDS011;46221;51.178;5.900;2023-04-25T04:15:18;4.70;;;2.35;;
50337;SDS011;46221;51.178;5.900;2023-04-25T04:17:45;3.75;;;1.98;;
50337;SDS011;46221;51.178;5.900;2023-04-25T04:20:13;3.80;;;1.98;;
50337;SDS011;46221;51.178;5.900;2023-04-25T04:22:39;5.95;;;2.05;;
50337;SDS011;46221;51.178;5.900;2023-04-25T04:25:06;4.63;;;1.88;;
50337;SDS011;46221;51.178;5.900;2023-04-25T04:27:32;5.28;;;2.00;;
50337;SDS011;46221;51.178;5.900;2023-04-25T04:29:59;4.60;;;2.15;;
50337;SDS011;46221;51.178;5.900;2023-04-25T04:32:26;5.28;;;2.15;;
50337;SDS011;46221;51.178;5.900;2023-04-25T04:34:53;4.43;;;2.08;;
50337;SDS011;46221;51.178;5.900;2023-04-25T04:37:21;6.93;;;2.47;;
50337;SDS011;46221;51.178;5.900;2023-04-25T04:39:53;5.18;;;2.38;;
50337;SDS011;46221;51.178;5.900;2023-04-25T04:42:31;5.05;;;1.83;;
50337;SDS011;46221;51.178;5.900;2023-04-25T04:44:57;4.70;;;2.25;;
50337;SDS011;46221;51.178;5.900;2023-04-25T04:47:24;5.75;;;2.00;;
50337;SDS011;46221;51.178;5.900;2023-04-25T04:49:52;5.03;;;1.83;;
50337;SDS011;46221;51.178;5.900;2023-04-25T04:52:18;6.35;;;2.40;;
50337;SDS011;46221;51.178;5.900;2023-04-25T04:54:44;5.70;;;2.45;;
50337;SDS011;46221;51.178;5.900;2023-04-25T04:57:11;6.80;;;2.67;;
50337;SDS011;46221;51.178;5.900;2023-04-25T04:59:37;6.30;;;2.00;;
50337;SDS011;46221;51.178;5.900;2023-04-25T05:02:03;4.70;;;2.33;;
50337;SDS011;46221;51.178;5.900;2023-04-25T05:04:30;6.07;;;2.00;;
50337;SDS011;46221;51.178;5.900;2023-04-25T05:06:56;4.82;;;2.35;;
50337;SDS011;46221;51.178;5.900;2023-04-25T05:09:23;6.15;;;2.10;;
50337;SDS011;46221;51.178;5.900;2023-04-25T05:11:51;5.10;;;2.00;;
50337;SDS011;46221;51.178;5.900;2023-04-25T05:14:18;5.65;;;1.98;;
50337;SDS011;46221;51.178;5.900;2023-04-25T05:16:44;3.95;;;1.88;;
50337;SDS011;46221;51.178;5.900;2023-04-25T05:19:10;7.70;;;2.42;;
50337;SDS011;46221;51.178;5.900;2023-04-25T05:21:37;5.65;;;2.20;;
50337;SDS011;46221;51.178;5.900;2023-04-25T05:24:03;4.93;;;1.92;;
50337;SDS011;46221;51.178;5.900;2023-04-25T05:26:30;5.03;;;1.90;;
50337;SDS011;46221;51.178;5.900;2023-04-25T05:28:57;6.18;;;2.10;;
50337;SDS011;46221;51.178;5.900;2023-04-25T05:31:23;5.07;;;2.15;;
50337;SDS011;46221;51.178;5.900;2023-04-25T05:33:50;5.45;;;2.20;;
50337;SDS011;46221;51.178;5.900;2023-04-25T05:36:18;5.85;;;1.80;;
50337;SDS011;46221;51.178;5.900;2023-04-25T05:38:44;5.97;;;1.92;;
50337;SDS011;46221;51.178;5.900;2023-04-25T05:41:11;5.78;;;1.95;;
50337;SDS011;46221;51.178;5.900;2023-04-25T05:43:37;4.40;;;1.98;;
50337;SDS011;46221;51.178;5.900;2023-04-25T05:46:03;6.45;;;2.17;;
50337;SDS011;46221;51.178;5.900;2023-04-25T05:48:30;5.85;;;2.47;;
50337;SDS011;46221;51.178;5.900;2023-04-25T05:50:57;6.55;;;2.47;;
50337;SDS011;46221;51.178;5.900;2023-04-25T05:53:24;4.18;;;2.00;;
50337;SDS011;46221;51.178;5.900;2023-04-25T05:55:51;5.03;;;2.10;;
50337;SDS011;46221;51.178;5.900;2023-04-25T05:58:17;6.10;;;2.35;;
50337;SDS011;46221;51.178;5.900;2023-04-25T06:00:43;4.28;;;2.15;;
50337;SDS011;46221;51.178;5.900;2023-04-25T06:03:10;6.88;;;2.58;;
50337;SDS011;46221;51.178;5.900;2023-04-25T06:05:37;5.15;;;2.10;;
50337;SDS011;46221;51.178;5.900;2023-04-25T06:08:07;6.07;;;2.72;;
50337;SDS011;46221;51.178;5.900;2023-04-25T06:10:35;6.38;;;2.10;;
50337;SDS011;46221;51.178;5.900;2023-04-25T06:13:02;6.38;;;2.28;;
50337;SDS011;46221;51.178;5.900;2023-04-25T06:15:30;4.07;;;1.75;;
50337;SDS011;46221;51.178;5.900;2023-04-25T06:18:02;5.78;;;2.50;;
50337;SDS011;46221;51.178;5.900;2023-04-25T06:20:29;6.05;;;1.88;;
50337;SDS011;46221;51.178;5.900;2023-04-25T06:22:55;6.90;;;1.70;;
50337;SDS011;46221;51.178;5.900;2023-04-25T06:25:22;4.70;;;1.80;;
50337;SDS011;46221;51.178;5.900;2023-04-25T06:27:48;5.93;;;1.80;;
50337;SDS011;46221;51.178;5.900;2023-04-25T06:30:15;6.38;;;2.35;;
50337;SDS011;46221;51.178;5.900;2023-04-25T06:32:44;4.32;;;1.90;;
50337;SDS011;46221;51.178;5.900;2023-04-25T06:35:10;4.40;;;1.63;;
50337;SDS011;46221;51.178;5.900;2023-04-25T06:37:37;3.95;;;1.88;;
50337;SDS011;46221;51.178;5.900;2023-04-25T06:40:14;5.60;;;1.83;;
50337;SDS011;46221;51.178;5.900;2023-04-25T06:42:41;5.72;;;1.80;;
50337;SDS011;46221;51.178;5.900;2023-04-25T06:45:08;6.00;;;2.22;;
50337;SDS011;46221;51.178;5.900;2023-04-25T06:47:36;5.40;;;1.90;;
50337;SDS011;46221;51.178;5.900;2023-04-25T06:50:02;6.53;;;2.30;;
50337;SDS011;46221;51.178;5.900;2023-04-25T06:52:29;4.22;;;1.85;;
50337;SDS011;46221;51.178;5.900;2023-04-25T06:54:56;9.52;;;2.15;;
50337;SDS011;46221;51.178;5.900;2023-04-25T06:57:22;4.50;;;1.77;;
50337;SDS011;46221;51.178;5.900;2023-04-25T06:59:49;6.78;;;1.80;;
50337;SDS011;46221;51.178;5.900;2023-04-25T07:02:16;4.68;;;1.73;;
50337;SDS011;46221;51.178;5.900;2023-04-25T07:04:42;10.50;;;2.20;;
50337;SDS011;46221;51.178;5.900;2023-04-25T07:07:09;4.40;;;1.60;;
50337;SDS011;46221;51.178;5.900;2023-04-25T07:09:38;4.55;;;1.75;;
50337;SDS011;46221;51.178;5.900;2023-04-25T07:12:08;5.55;;;1.95;;
50337;SDS011;46221;51.178;5.900;2023-04-25T07:14:34;7.32;;;2.03;;
50337;SDS011;46221;51.178;5.900;2023-04-25T07:17:01;4.85;;;1.75;;
50337;SDS011;46221;51.178;5.900;2023-04-25T07:19:28;4.47;;;1.70;;
50337;SDS011;46221;51.178;5.900;2023-04-25T07:21:55;6.10;;;1.85;;
50337;SDS011;46221;51.178;5.900;2023-04-25T07:24:22;7.25;;;2.08;;
50337;SDS011;46221;51.178;5.900;2023-04-25T07:26:48;6.60;;;1.58;;
50337;SDS011;46221;51.178;5.900;2023-04-25T07:29:14;5.40;;;2.22;;
50337;SDS011;46221;51.178;5.900;2023-04-25T07:31:41;6.75;;;1.88;;
50337;SDS011;46221;51.178;5.900;2023-04-25T07:34:07;6.07;;;1.70;;
50337;SDS011;46221;51.178;5.900;2023-04-25T07:36:35;6.90;;;2.05;;
50337;SDS011;46221;51.178;5.900;2023-04-25T07:39:01;6.15;;;2.22;;
50337;SDS011;46221;51.178;5.900;2023-04-25T07:41:28;5.72;;;1.85;;
50337;SDS011;46221;51.178;5.900;2023-04-25T07:43:54;5.65;;;1.95;;
50337;SDS011;46221;51.178;5.900;2023-04-25T07:46:20;7.03;;;1.92;;
50337;SDS011;46221;51.178;5.900;2023-04-25T07:48:47;4.70;;;2.08;;
50337;SDS011;46221;51.178;5.900;2023-04-25T07:51:14;6.80;;;1.67;;
50337;SDS011;46221;51.178;5.900;2023-04-25T07:53:40;6.32;;;1.83;;
50337;SDS011;46221;51.178;5.900;2023-04-25T07:56:07;5.72;;;1.70;;
50337;SDS011;46221;51.178;5.900;2023-04-25T07:58:33;5.10;;;1.85;;
50337;SDS011;46221;51.178;5.900;2023-04-25T08:00:59;4.82;;;1.90;;
50337;SDS011;46221;51.178;5.900;2023-04-25T08:03:26;3.72;;;1.58;;
50337;SDS011;46221;51.178;5.900;2023-04-25T08:05:52;5.47;;;2.28;;
50337;SDS011;46221;51.178;5.900;2023-04-25T08:08:19;4.47;;;1.88;;
50337;SDS011;46221;51.178;5.900;2023-04-25T08:10:46;7.75;;;2.00;;
50337;SDS011;46221;51.178;5.900;2023-04-25T08:13:14;5.57;;;1.83;;
50337;SDS011;46221;51.178;5.900;2023-04-25T08:15:40;5.88;;;1.88;;
50337;SDS011;46221;51.178;5.900;2023-04-25T08:18:07;7.28;;;2.50;;
50337;SDS011;46221;51.178;5.900;2023-04-25T08:20:33;5.00;;;1.77;;
50337;SDS011;46221;51.178;5.900;2023-04-25T08:23:00;9.32;;;2.65;;
50337;SDS011;46221;51.178;5.900;2023-04-25T08:25:27;5.57;;;2.13;;
50337;SDS011;46221;51.178;5.900;2023-04-25T08:27:53;8.23;;;2.03;;
50337;SDS011;46221;51.178;5.900;2023-04-25T08:30:19;6.07;;;1.88;;
50337;SDS011;46221;51.178;5.900;2023-04-25T08:32:47;6.55;;;1.85;;
50337;SDS011;46221;51.178;5.900;2023-04-25T08:35:14;6.28;;;1.92;;
50337;SDS011;46221;51.178;5.900;2023-04-25T08:37:40;4.90;;;2.10;;
50337;SDS011;46221;51.178;5.900;2023-04-25T08:40:07;4.88;;;1.67;;
50337;SDS011;46221;51.178;5.900;2023-04-25T08:42:36;4.68;;;1.63;;
50337;SDS011;46221;51.178;5.900;2023-04-25T08:45:05;4.40;;;1.80;;
50337;SDS011;46221;51.178;5.900;2023-04-25T08:47:33;5.35;;;1.77;;
50337;SDS011;46221;51.178;5.900;2023-04-25T08:50:00;6.15;;;1.52;;
50337;SDS011;46221;51.178;5.900;2023-04-25T08:52:30;4.90;;;1.70;;
50337;SDS011;46221;51.178;5.900;2023-04-25T08:54:58;6.57;;;2.08;;
50337;SDS011;46221;51.178;5.900;2023-04-25T08:57:26;4.78;;;1.77;;
50337;SDS011;46221;51.178;5.900;2023-04-25T08:59:53;5.00;;;1.80;;
50337;SDS011;46221;51.178;5.900;2023-04-25T09:02:20;6.43;;;2.33;;
50337;SDS011;46221;51.178;5.900;2023-04-25T09:04:51;4.95;;;1.63;;
50337;SDS011;46221;51.178;5.900;2023-04-25T09:07:18;3.65;;;1.70;;
50337;SDS011;46221;51.178;5.900;2023-04-25T09:09:47;4.28;;;1.60;;
50337;SDS011;46221;51.178;5.900;2023-04-25T09:12:13;6.43;;;1.70;;
50337;SDS011;46221;51.178;5.900;2023-04-25T09:14:40;6.38;;;1.70;;
50337;SDS011;46221;51.178;5.900;2023-04-25T09:17:09;5.00;;;1.80;;
50337;SDS011;46221;51.178;5.900;2023-04-25T09:19:36;5.13;;;1.92;;
50337;SDS011;46221;51.178;5.900;2023-04-25T09:22:06;5.53;;;1.75;;
50337;SDS011;46221;51.178;5.900;2023-04-25T09:24:37;6.28;;;2.28;;
50337;SDS011;46221;51.178;5.900;2023-04-25T09:27:07;6.47;;;1.80;;
50337;SDS011;46221;51.178;5.900;2023-04-25T09:29:34;5.13;;;1.60;;
50337;SDS011;46221;51.178;5.900;2023-04-25T09:34:40;3.90;;;1.58;;
50337;SDS011;46221;51.178;5.900;2023-04-25T09:37:09;6.03;;;2.15;;
50337;SDS011;46221;51.178;5.900;2023-04-25T09:39:39;6.88;;;1.83;;
50337;SDS011;46221;51.178;5.900;2023-04-25T09:42:06;4.82;;;1.80;;
50337;SDS011;46221;51.178;5.900;2023-04-25T09:44:32;6.35;;;1.85;;
50337;SDS011;46221;51.178;5.900;2023-04-25T09:47:00;4.22;;;1.40;;
50337;SDS011;46221;51.178;5.900;2023-04-25T09:49:27;4.10;;;1.30;;
50337;SDS011;46221;51.178;5.900;2023-04-25T09:51:56;5.10;;;1.42;;
50337;SDS011;46221;51.178;5.900;2023-04-25T09:54:24;5.80;;;1.83;;
50337;SDS011;46221;51.178;5.900;2023-04-25T09:56:53;5.45;;;1.65;;
50337;SDS011;46221;51.178;5.900;2023-04-25T09:59:20;5.85;;;1.67;;
50337;SDS011;46221;51.178;5.900;2023-04-25T10:01:49;6.47;;;2.05;;
50337;SDS011;46221;51.178;5.900;2023-04-25T10:04:20;5.63;;;1.73;;
50337;SDS011;46221;51.178;5.900;2023-04-25T10:06:53;4.07;;;1.60;;
50337;SDS011;46221;51.178;5.900;2023-04-25T10:09:23;4.85;;;1.75;;
50337;SDS011;46221;51.178;5.900;2023-04-25T10:11:56;4.28;;;1.50;;
50337;SDS011;46221;51.178;5.900;2023-04-25T10:14:23;5.85;;;1.75;;
50337;SDS011;46221;51.178;5.900;2023-04-25T10:16:50;4.03;;;1.65;;
50337;SDS011;46221;51.178;5.900;2023-04-25T10:19:20;5.03;;;1.95;;
50337;SDS011;46221;51.178;5.900;2023-04-25T10:21:48;6.35;;;1.50;;
50337;SDS011;46221;51.178;5.900;2023-04-25T10:24:16;5.47;;;1.52;;
50337;SDS011;46221;51.178;5.900;2023-04-25T10:26:42;4.63;;;1.75;;
50337;SDS011;46221;51.178;5.900;2023-04-25T10:29:09;5.38;;;1.55;;
50337;SDS011;46221;51.178;5.900;2023-04-25T10:31:44;4.93;;;1.83;;
50337;SDS011;46221;51.178;5.900;2023-04-25T10:34:11;3.97;;;1.67;;
50337;SDS011;46221;51.178;5.900;2023-04-25T10:36:37;4.85;;;1.50;;
50337;SDS011;46221;51.178;5.900;2023-04-25T10:39:04;5.47;;;1.77;;
50337;SDS011;46221;51.178;5.900;2023-04-25T10:41:57;4.13;;;1.60;;
50337;SDS011;46221;51.178;5.900;2023-04-25T10:44:22;4.43;;;1.70;;
50337;SDS011;46221;51.178;5.900;2023-04-25T10:46:49;3.97;;;1.38;;
50337;SDS011;46221;51.178;5.900;2023-04-25T10:49:32;5.70;;;1.60;;
50337;SDS011;46221;51.178;5.900;2023-04-25T10:52:18;5.68;;;1.55;;
50337;SDS011;46221;51.178;5.900;2023-04-25T10:54:46;4.00;;;1.33;;
50337;SDS011;46221;51.178;5.900;2023-04-25T11:00:05;5.00;;;1.60;;
50337;SDS011;46221;51.178;5.900;2023-04-25T11:02:36;5.28;;;1.38;;
50337;SDS011;46221;51.178;5.900;2023-04-25T11:05:03;5.55;;;1.48;;
50337;SDS011;46221;51.178;5.900;2023-04-25T11:07:43;5.90;;;1.73;;
50337;SDS011;46221;51.178;5.900;2023-04-25T11:10:28;3.80;;;1.13;;
50337;SDS011;46221;51.178;5.900;2023-04-25T11:12:55;5.25;;;1.83;;
50337;SDS011;46221;51.178;5.900;2023-04-25T11:15:22;4.40;;;1.45;;
50337;SDS011;46221;51.178;5.900;2023-04-25T11:17:50;5.15;;;1.38;;
50337;SDS011;46221;51.178;5.900;2023-04-25T11:20:17;4.72;;;1.65;;
50337;SDS011;46221;51.178;5.900;2023-04-25T11:22:44;4.18;;;1.50;;
50337;SDS011;46221;51.178;5.900;2023-04-25T11:25:12;3.83;;;1.35;;
50337;SDS011;46221;51.178;5.900;2023-04-25T11:27:59;5.65;;;1.30;;
50337;SDS011;46221;51.178;5.900;2023-04-25T11:30:49;5.95;;;1.50;;
50337;SDS011;46221;51.178;5.900;2023-04-25T11:33:25;5.22;;;1.30;;
50337;SDS011;46221;51.178;5.900;2023-04-25T11:35:56;6.45;;;2.10;;
50337;SDS011;46221;51.178;5.900;2023-04-25T11:39:12;3.28;;;1.25;;
50337;SDS011;46221;51.178;5.900;2023-04-25T11:41:41;4.75;;;1.60;;
50337;SDS011;46221;51.178;5.900;2023-04-25T11:44:11;7.75;;;1.20;;
50337;SDS011;46221;51.178;5.900;2023-04-25T11:46:37;4.15;;;1.38;;
50337;SDS011;46221;51.178;5.900;2023-04-25T11:49:04;5.78;;;1.38;;
50337;SDS011;46221;51.178;5.900;2023-04-25T11:51:37;5.45;;;1.40;;
50337;SDS011;46221;51.178;5.900;2023-04-25T11:54:04;4.57;;;1.30;;
50337;SDS011;46221;51.178;5.900;2023-04-25T11:56:31;4.05;;;1.02;;
50337;SDS011;46221;51.178;5.900;2023-04-25T11:59:02;5.18;;;1.40;;
50337;SDS011;46221;51.178;5.900;2023-04-25T12:01:33;4.78;;;1.45;;
50337;SDS011;46221;51.178;5.900;2023-04-25T12:06:38;5.07;;;1.15;;
50337;SDS011;46221;51.178;5.900;2023-04-25T12:09:09;4.55;;;1.27;;
50337;SDS011;46221;51.178;5.900;2023-04-25T12:11:43;4.05;;;1.30;;
50337;SDS011;46221;51.178;5.900;2023-04-25T12:14:10;4.05;;;1.05;;
50337;SDS011;46221;51.178;5.900;2023-04-25T12:16:43;3.65;;;1.17;;
50337;SDS011;46221;51.178;5.900;2023-04-25T12:19:14;5.80;;;1.60;;
50337;SDS011;46221;51.178;5.900;2023-04-25T12:21:41;4.80;;;1.65;;
50337;SDS011;46221;51.178;5.900;2023-04-25T12:24:25;3.78;;;1.20;;
50337;SDS011;46221;51.178;5.900;2023-04-25T12:27:02;5.72;;;1.30;;
50337;SDS011;46221;51.178;5.900;2023-04-25T12:29:29;3.35;;;1.05;;
50337;SDS011;46221;51.178;5.900;2023-04-25T12:32:07;4.00;;;1.10;;
50337;SDS011;46221;51.178;5.900;2023-04-25T12:34:34;4.82;;;1.55;;
50337;SDS011;46221;51.178;5.900;2023-04-25T12:37:02;3.42;;;1.00;;
50337;SDS011;46221;51.178;5.900;2023-04-25T12:39:28;3.60;;;1.20;;
50337;SDS011;46221;51.178;5.900;2023-04-25T12:41:55;3.55;;;1.55;;
50337;SDS011;46221;51.178;5.900;2023-04-25T12:44:21;4.43;;;1.35;;
50337;SDS011;46221;51.178;5.900;2023-04-25T12:46:48;3.65;;;1.25;;
50337;SDS011;46221;51.178;5.900;2023-04-25T12:49:15;5.43;;;1.50;;
50337;SDS011;46221;51.178;5.900;2023-04-25T12:51:44;4.07;;;1.30;;
50337;SDS011;46221;51.178;5.900;2023-04-25T12:54:11;2.90;;;1.20;;
50337;SDS011;46221;51.178;5.900;2023-04-25T12:56:37;4.13;;;1.35;;
50337;SDS011;46221;51.178;5.900;2023-04-25T12:59:04;3.13;;;1.08;;
50337;SDS011;46221;51.178;5.900;2023-04-25T13:01:30;2.70;;;1.10;;
50337;SDS011;46221;51.178;5.900;2023-04-25T13:04:01;3.05;;;1.20;;
50337;SDS011;46221;51.178;5.900;2023-04-25T13:06:28;4.03;;;1.33;;
50337;SDS011;46221;51.178;5.900;2023-04-25T13:08:56;5.30;;;1.10;;
50337;SDS011;46221;51.178;5.900;2023-04-25T13:11:22;3.97;;;1.17;;
50337;SDS011;46221;51.178;5.900;2023-04-25T13:13:49;2.70;;;1.30;;
50337;SDS011;46221;51.178;5.900;2023-04-25T13:16:16;3.05;;;1.17;;
50337;SDS011;46221;51.178;5.900;2023-04-25T13:18:43;4.35;;;1.70;;
50337;SDS011;46221;51.178;5.900;2023-04-25T13:21:09;3.97;;;1.00;;
50337;SDS011;46221;51.178;5.900;2023-04-25T13:23:41;3.20;;;1.42;;
50337;SDS011;46221;51.178;5.900;2023-04-25T13:26:09;4.32;;;1.10;;
50337;SDS011;46221;51.178;5.900;2023-04-25T13:28:36;2.78;;;1.40;;
50337;SDS011;46221;51.178;5.900;2023-04-25T13:31:03;5.20;;;1.45;;
50337;SDS011;46221;51.178;5.900;2023-04-25T13:33:29;5.65;;;1.55;;
50337;SDS011;46221;51.178;5.900;2023-04-25T13:35:55;8.70;;;1.48;;
50337;SDS011;46221;51.178;5.900;2023-04-25T13:38:23;5.65;;;1.60;;
50337;SDS011;46221;51.178;5.900;2023-04-25T13:40:50;3.70;;;1.00;;
50337;SDS011;46221;51.178;5.900;2023-04-25T13:43:21;6.28;;;1.58;;
50337;SDS011;46221;51.178;5.900;2023-04-25T13:45:50;3.67;;;1.23;;
50337;SDS011;46221;51.178;5.900;2023-04-25T13:48:18;5.22;;;1.20;;
50337;SDS011;46221;51.178;5.900;2023-04-25T13:50:44;4.63;;;1.50;;
50337;SDS011;46221;51.178;5.900;2023-04-25T13:53:11;3.40;;;1.35;;
50337;SDS011;46221;51.178;5.900;2023-04-25T13:55:38;5.00;;;1.42;;
50337;SDS011;46221;51.178;5.900;2023-04-25T13:58:05;8.65;;;1.67;;
50337;SDS011;46221;51.178;5.900;2023-04-25T14:00:38;4.78;;;1.00;;
50337;SDS011;46221;51.178;5.900;2023-04-25T14:03:05;5.30;;;1.52;;
50337;SDS011;46221;51.178;5.900;2023-04-25T14:05:34;4.25;;;1.30;;
50337;SDS011;46221;51.178;5.900;2023-04-25T14:08:05;6.28;;;1.30;;
50337;SDS011;46221;51.178;5.900;2023-04-25T14:10:31;4.05;;;1.20;;
50337;SDS011;46221;51.178;5.900;2023-04-25T14:12:58;4.65;;;1.20;;
50337;SDS011;46221;51.178;5.900;2023-04-25T14:15:24;5.90;;;1.45;;
50337;SDS011;46221;51.178;5.900;2023-04-25T14:17:54;5.25;;;1.20;;
50337;SDS011;46221;51.178;5.900;2023-04-25T14:20:21;5.07;;;1.13;;
50337;SDS011;46221;51.178;5.900;2023-04-25T14:22:49;3.90;;;1.25;;
50337;SDS011;46221;51.178;5.900;2023-04-25T14:25:16;5.22;;;1.38;;
50337;SDS011;46221;51.178;5.900;2023-04-25T14:27:42;3.50;;;0.90;;
50337;SDS011;46221;51.178;5.900;2023-04-25T14:30:14;3.20;;;1.10;;
50337;SDS011;46221;51.178;5.900;2023-04-25T14:32:43;3.53;;;1.25;;
50337;SDS011;46221;51.178;5.900;2023-04-25T14:35:11;3.17;;;1.20;;
50337;SDS011;46221;51.178;5.900;2023-04-25T14:37:37;4.70;;;1.33;;
50337;SDS011;46221;51.178;5.900;2023-04-25T14:40:04;2.90;;;1.10;;
50337;SDS011;46221;51.178;5.900;2023-04-25T14:42:31;2.95;;;0.70;;
50337;SDS011;46221;51.178;5.900;2023-04-25T14:44:59;3.70;;;1.10;;
50337;SDS011;46221;51.178;5.900;2023-04-25T14:47:27;3.45;;;1.20;;
50337;SDS011;46221;51.178;5.900;2023-04-25T14:49:54;4.78;;;1.60;;
50337;SDS011;46221;51.178;5.900;2023-04-25T14:52:20;4.97;;;1.20;;
50337;SDS011;46221;51.178;5.900;2023-04-25T14:54:51;5.00;;;1.50;;
50337;SDS011;46221;51.178;5.900;2023-04-25T14:57:33;5.47;;;1.27;;
50337;SDS011;46221;51.178;5.900;2023-04-25T15:00:13;6.75;;;1.38;;